Historyczne dane pomiarowe

Dodano dane terminowe – wersja testowa.

Dane z okresu 1951-2019

Wersja bazy: 1.34 [2019-03-16, lista zmian], aktualizacja planowana na 2019-04-15

Dane meteo z obszaru Polski uzyskane na podstawie danych udostępnionych przez Instytut Meteorologii i Gospodarki Wodnej – Państwowy Instytut Badawczy.

 

Wybierz Datę:    

       

TemperaturaWilgotnośćWiatrCiśnienieOpadyŚniegCzas trwania zjawisk
 Stacja t tx tn tng RH VA  wxwx mslp ppp RRR   cm mm wxwxwxwxwxwxwx
1994-10-10 1.9 8.9 -3.4- 83.0- 2.0 1.0---- 0.0------------
1994-10-09 4.0 6.3 2.5- 92.5- 7.3 2.7---- 7.7------------
1994-10-08 5.3 9.9 0.5- 82.8- 5.0 1.3---- 3.2------------
1994-10-07 2.0 2.7 1.1- 90.8- 8.0 4.3---- 4.2------------
1994-10-06 2.0 5.7 -1.4- 83.3- 8.0 2.3---- 0.6------------
1994-10-05 6.6 10.5 -1.0- 80.8- 4.7 2.0---- 0.0------------
1994-10-04 8.5 14.5 4.1- 87.8- 8.0 3.7---- 2.4------------
1994-10-03 13.1 18.5 8.2- 87.5- 6.3 1.3---- 3.5------------
1994-10-02 12.5 17.3 9.8- 80.3- 7.0 0.0---- 2.0------------
1994-10-01 11.9 19.5 6.6- 76.5- 8.0 4.3---- 0.0------------
1994-09-30 12.0 18.5 8.4- 82.8- 4.7 2.0---- 0.0------------
1994-09-29 12.1 18.4 6.6- 78.3- 3.0 1.3---- 0.0------------
1994-09-28 11.6 15.9 8.0- 79.8- 7.7 1.3---- 0.0------------
1994-09-27 15.2 19.2 12.3- 85.0- 8.0 3.3---- 4.0------------
1994-09-26 16.3 21.4 10.2- 83.5- 6.3 1.3---- 0.0------------
1994-09-25 15.4 24.3 7.6- 77.3- 3.7 0.0---- 0.0------------
1994-09-24 12.5 21.4 6.8- 77.0- 2.7 1.3---- 0.0------------
1994-09-23 13.1 16.1 10.5- 74.3- 4.7 2.7---- 0.0------------
1994-09-22 10.7 15.4 5.3- 79.8- 7.3 2.0---- 0.0------------
1994-09-21 11.2 12.4 9.5- 88.3- 8.0 1.0---- 1.8------------
1994-09-20 10.7 12.5 9.5- 93.5- 8.0 3.0---- 3.1------------
1994-09-19 11.2 14.9 5.1- 86.5- 6.7 3.0---- 1.0------------
1994-09-18 10.2 13.4 4.7- 87.8- 6.7 0.0---- 0.0------------
1994-09-17 13.6 16.1 9.5- 94.5- 8.0 2.3---- 6.4------------
1994-09-16 13.5 18.6 7.6- 70.0- 4.3 3.0---- 0.0------------
1994-09-15 19.8 23.4 17.2- 58.5- 5.0 12.0---- 1.7------------
1994-09-14 18.6 26.7 9.7- 76.0- 4.7 6.7---- 1.4------------
1994-09-13 15.6 24.3 9.3- 84.3- 4.7 0.3---- 0.2------------
1994-09-12 13.9 23.8 7.0- 82.5- 5.3 2.0---- 0.0------------
1994-09-11 12.7 19.8 6.6- 83.8- 6.7 1.7---- 0.0------------
1994-09-10 14.3 21.2 7.8- 77.0- 1.7 0.3---- 0.0------------
1994-09-09 18.7 24.7 14.5- 77.8- 6.0 3.3---- 2.2------------
1994-09-08 18.8 26.3 11.7- 77.0- 6.0 5.7---- 0.0------------
1994-09-07 15.0 23.5 7.5- 84.5- 4.7 1.0---- 0.0------------
1994-09-06 14.1 18.0 12.5- 94.5- 5.7 0.0---- 6.2------------
1994-09-05 17.3 21.0 14.6- 90.0- 7.0 1.0---- 0.0------------
1994-09-04 16.3 20.7 14.4- 94.3- 8.0 3.7---- 1.2------------
1994-09-03 20.9 25.6 16.1- 76.3- 6.3 3.0---- 0.0------------
1994-09-02 20.3 27.7 11.2- 75.3- 4.7 1.0---- 0.2------------
1994-09-01 16.1 20.2 12.2- 94.3- 6.7 1.3---- 10.4------------
1994-08-31 15.6 22.6 8.8- 88.3- 4.7 1.3---- 0.2------------
1994-08-30 12.5 18.6 8.3- 85.0- 5.0 1.3---- 0.2------------
1994-08-29 15.8 19.5 12.2- 92.0- 7.3 1.3---- 0.0------------
1994-08-28 15.8 23.0 9.9- 81.8- 4.3 1.3---- 2.2------------
1994-08-27 14.3 17.0 12.8- 92.8- 8.0 3.0---- 0.0------------
1994-08-26 15.0 20.3 13.9- 95.0- 8.0 4.0---- 10.3------------
1994-08-25 18.6 23.5 13.3- 80.0- 7.3 0.7---- 4.4------------
1994-08-24 16.5 22.9 8.3- 80.3- 4.3 1.0---- 0.0------------
1994-08-23 15.8 23.6 8.7- 76.0- 7.0 2.7---- 0.0------------
1994-08-22 15.5 22.0 9.1- 82.3- 5.3 1.3---- 0.0------------
1994-08-21 13.7 19.8 7.1- 80.8- 3.3 3.0---- 0.5------------
1994-08-20 13.7 18.5 11.2- 91.0- 6.7 2.3---- 10.5------------
1994-08-19 12.5 15.5 7.8- 85.8- 7.0 1.0---- 7.0------------
1994-08-18 13.1 19.6 10.2- 94.5- 6.3 0.0---- 22.8------------
1994-08-17 15.6 24.7 7.4- 79.0- 5.3 1.3---- 0.6------------
1994-08-16 15.2 18.5 11.2- 79.3- 7.0 0.7---- 0.0------------
1994-08-15 12.6 18.5 5.3- 68.5- 5.7 3.0---- 0.0------------
1994-08-14 15.8 20.5 11.2- 72.8- 4.7 3.0---- 0.1------------
1994-08-13 17.1 22.0 12.2- 78.0- 6.3 3.0---- 2.3------------
1994-08-12 15.6 22.1 12.6- 89.5- 7.0 2.0---- 5.3------------
1610.8 ms

 

Źródłem pochodzenia danych jest Instytut Meteorologii i Gospodarki Wodnej – Państwowy Instytut Badawczy. Dane Instytutu Meteorologii i Gospodarki Wodnej – Państwowego Instytutu Badawczego zostały przetworzone.

Dane źródłowe można odnaleźć na stronie https://dane.imgw.pl